createdAt,value
2022-08-12T00:00:34.329Z,99.90
2022-08-12T00:03:21.441Z,99.90
2022-08-12T00:06:10.333Z,99.90
2022-08-12T00:08:57.583Z,99.90
2022-08-12T00:11:44.793Z,99.90
2022-08-12T00:14:31.716Z,99.90
2022-08-12T00:17:18.886Z,99.90
2022-08-12T00:20:06.539Z,99.90
2022-08-12T00:22:59.635Z,99.90
2022-08-12T00:26:20.749Z,99.90
2022-08-12T00:29:02.935Z,99.90
2022-08-12T00:31:49.171Z,99.90
2022-08-12T00:34:36.265Z,99.90
2022-08-12T00:37:24.119Z,99.90
2022-08-12T00:40:13.718Z,99.90
2022-08-12T00:42:42.724Z,99.90
2022-08-12T00:45:13.308Z,99.90
2022-08-12T00:47:43.515Z,99.90
2022-08-12T00:50:20.035Z,99.90
2022-08-12T00:52:51.085Z,99.90
2022-08-12T00:55:23.738Z,99.90
2022-08-12T00:57:57.144Z,99.90
2022-08-12T01:00:27.939Z,99.90
2022-08-12T01:03:01.025Z,99.90
2022-08-12T01:05:48.339Z,99.90
2022-08-12T01:08:46.630Z,99.90
2022-08-12T01:11:34.466Z,99.90
2022-08-12T01:14:04.960Z,99.90
2022-08-12T01:16:34.874Z,99.90
2022-08-12T01:19:05.043Z,99.90
2022-08-12T01:21:46.136Z,99.90
2022-08-12T01:24:31.190Z,99.90
2022-08-12T01:27:07.924Z,99.90
2022-08-12T01:29:39.792Z,99.90
2022-08-12T01:32:11.732Z,99.90
2022-08-12T01:34:43.576Z,99.90
2022-08-12T01:37:15.693Z,99.90
2022-08-12T01:40:34.588Z,99.90
2022-08-12T01:42:45.616Z,99.90
2022-08-12T01:45:15.733Z,99.90
2022-08-12T01:47:52.986Z,99.90
2022-08-12T01:50:24.818Z,99.90
2022-08-12T01:53:00.114Z,99.90
2022-08-12T01:55:31.996Z,99.90
2022-08-12T01:58:06.631Z,99.90
2022-08-12T02:00:55.158Z,99.90
2022-08-12T02:03:47.168Z,99.90
2022-08-12T02:06:39.550Z,99.90
2022-08-12T02:09:28.296Z,99.90
2022-08-12T02:12:06.099Z,99.90
2022-08-12T02:14:46.690Z,99.90
2022-08-12T02:17:54.675Z,99.90
2022-08-12T02:20:22.498Z,99.90
2022-08-12T02:22:52.990Z,99.90
2022-08-12T02:25:25.029Z,99.90
2022-08-12T02:27:55.564Z,99.90
2022-08-12T02:30:38.339Z,99.90
2022-08-12T02:33:12.950Z,99.90
2022-08-12T02:35:43.188Z,99.90
2022-08-12T02:38:13.259Z,99.90
2022-08-12T02:40:43.480Z,99.90
2022-08-12T02:43:16.606Z,99.90
2022-08-12T02:45:49.512Z,99.90
2022-08-12T02:48:22.674Z,99.90
2022-08-12T02:50:54.661Z,99.90
2022-08-12T02:53:24.930Z,99.90
2022-08-12T02:55:54.597Z,99.90
2022-08-12T02:58:33.000Z,99.90
2022-08-12T03:01:05.951Z,99.90
2022-08-12T03:03:36.404Z,99.90
2022-08-12T03:06:08.595Z,99.90
2022-08-12T03:08:41.769Z,99.90
2022-08-12T03:11:15.136Z,99.90
2022-08-12T03:13:48.160Z,99.90
2022-08-12T03:16:20.145Z,99.90
2022-08-12T03:18:51.148Z,99.90
2022-08-12T03:21:55.462Z,99.90
2022-08-12T03:24:15.311Z,99.90
2022-08-12T03:26:47.319Z,99.90
2022-08-12T03:29:19.166Z,99.90
2022-08-12T03:31:50.730Z,99.90
2022-08-12T03:34:24.211Z,99.90
2022-08-12T03:36:56.162Z,99.90
2022-08-12T03:39:37.150Z,99.90
2022-08-12T03:42:10.367Z,99.90
2022-08-12T03:44:57.959Z,99.90
2022-08-12T03:47:50.567Z,99.90
2022-08-12T03:50:37.603Z,99.90
2022-08-12T03:53:25.691Z,99.90
2022-08-12T03:56:12.418Z,99.90
2022-08-12T03:59:00.407Z,99.90
2022-08-12T04:01:30.282Z,99.90
2022-08-12T04:04:04.854Z,99.90
2022-08-12T04:06:36.011Z,99.90
2022-08-12T04:09:16.420Z,99.90
2022-08-12T04:12:04.307Z,99.90
2022-08-12T04:14:34.315Z,99.90
2022-08-12T04:17:04.419Z,99.90
2022-08-12T04:19:35.640Z,99.90
2022-08-12T04:22:05.159Z,99.90
2022-08-12T04:24:36.664Z,99.90
2022-08-12T04:27:09.454Z,99.90
2022-08-12T04:30:30.065Z,99.90
2022-08-12T04:32:29.170Z,99.90
2022-08-12T04:35:00.416Z,99.90
2022-08-12T04:37:30.619Z,99.90
2022-08-12T04:40:28.760Z,99.90
2022-08-12T04:42:58.600Z,99.90
2022-08-12T04:45:28.082Z,99.90
2022-08-12T04:47:57.943Z,99.90
2022-08-12T04:50:36.304Z,99.90
2022-08-12T04:53:08.496Z,99.90
2022-08-12T04:55:39.939Z,99.90
2022-08-12T04:58:09.624Z,99.90
2022-08-12T05:00:40.254Z,99.90
2022-08-12T05:03:10.451Z,99.90
2022-08-12T05:05:42.045Z,99.90
2022-08-12T05:08:13.642Z,99.90
2022-08-12T05:10:43.130Z,99.90
2022-08-12T05:13:15.403Z,99.90
2022-08-12T05:16:02.547Z,99.90
2022-08-12T05:18:33.604Z,99.90
2022-08-12T05:21:06.690Z,99.90
2022-08-12T05:23:38.158Z,99.90
2022-08-12T05:26:07.704Z,99.90
2022-08-12T05:28:37.205Z,99.90
2022-08-12T05:31:07.683Z,99.90
2022-08-12T05:33:40.996Z,99.90
2022-08-12T05:36:14.471Z,99.90
2022-08-12T05:38:59.221Z,99.90
2022-08-12T05:41:29.874Z,99.90
2022-08-12T05:44:00.613Z,99.90
2022-08-12T05:46:30.846Z,99.90
2022-08-12T05:49:01.796Z,99.90
2022-08-12T05:51:40.263Z,99.90
2022-08-12T05:54:12.069Z,99.90
2022-08-12T05:56:42.478Z,99.90
2022-08-12T05:59:12.747Z,99.90
2022-08-12T06:02:11.231Z,99.90
2022-08-12T06:04:34.347Z,99.90
2022-08-12T06:07:59.199Z,99.90
2022-08-12T06:09:58.355Z,99.90
2022-08-12T06:12:28.188Z,99.90
2022-08-12T06:14:57.995Z,99.90
2022-08-12T06:17:27.468Z,99.90
2022-08-12T06:20:26.236Z,99.90
2022-08-12T06:22:52.608Z,99.90
2022-08-12T06:25:24.301Z,99.90
2022-08-12T06:28:07.571Z,99.90
2022-08-12T06:30:39.803Z,99.90
2022-08-12T06:33:57.800Z,99.90
2022-08-12T06:35:59.509Z,99.90
2022-08-12T06:38:32.941Z,99.90
2022-08-12T06:41:19.701Z,99.90
2022-08-12T06:44:06.365Z,99.90
2022-08-12T06:46:39.355Z,99.90
2022-08-12T06:49:13.007Z,99.90
2022-08-12T06:51:56.110Z,99.90
2022-08-12T06:54:31.643Z,99.90
2022-08-12T06:58:01.804Z,99.90
2022-08-12T06:59:51.570Z,99.90
2022-08-12T07:02:23.434Z,99.90
2022-08-12T07:04:53.415Z,99.90
2022-08-12T07:07:23.200Z,99.90
2022-08-12T07:10:00.007Z,99.90
2022-08-12T07:12:37.576Z,99.90
2022-08-12T07:15:07.993Z,99.90
2022-08-12T07:17:40.363Z,99.90
2022-08-12T07:20:29.825Z,99.90
2022-08-12T07:23:01.803Z,99.90
2022-08-12T07:25:41.217Z,99.90
2022-08-12T07:28:16.092Z,99.90
2022-08-12T07:30:46.947Z,99.90
2022-08-12T07:33:17.470Z,99.90
2022-08-12T07:35:48.657Z,99.90
2022-08-12T07:38:29.632Z,99.90
2022-08-12T07:41:04.567Z,99.90
2022-08-12T07:43:34.895Z,99.90
2022-08-12T07:46:06.543Z,99.90
2022-08-12T07:48:40.725Z,99.90
2022-08-12T07:51:10.837Z,99.90
2022-08-12T07:53:50.177Z,99.90
2022-08-12T07:56:32.720Z,99.90
2022-08-12T07:59:03.870Z,99.90
2022-08-12T08:01:34.978Z,99.90
2022-08-12T08:04:21.513Z,99.90
2022-08-12T08:06:51.223Z,99.90
2022-08-12T08:09:22.864Z,99.90
2022-08-12T08:12:19.418Z,99.90
2022-08-12T08:14:49.935Z,99.90
2022-08-12T08:17:19.875Z,99.90
2022-08-12T08:20:03.629Z,99.90
2022-08-12T08:22:50.063Z,99.90
2022-08-12T08:25:36.315Z,99.90
2022-08-12T08:28:11.642Z,99.90
2022-08-12T08:30:43.521Z,99.90
2022-08-12T08:33:23.011Z,99.90
2022-08-12T08:35:56.453Z,99.90
2022-08-12T08:38:33.253Z,99.90
2022-08-12T08:42:16.224Z,99.90
2022-08-12T08:44:13.404Z,99.90
2022-08-12T08:46:45.046Z,99.90
2022-08-12T08:49:16.060Z,99.90
2022-08-12T08:51:46.110Z,99.90
2022-08-12T08:54:15.772Z,99.90
2022-08-12T08:56:46.974Z,99.90
2022-08-12T08:59:19.861Z,99.90
2022-08-12T09:01:49.955Z,99.90
2022-08-12T09:05:13.509Z,99.90
2022-08-12T09:07:17.634Z,99.90
2022-08-12T09:10:04.322Z,99.90
2022-08-12T09:12:55.226Z,99.90
2022-08-12T09:15:35.829Z,99.90
2022-08-12T09:20:55.913Z,99.90
2022-08-12T09:24:00.123Z,99.90
2022-08-12T09:26:19.658Z,99.90
2022-08-12T09:28:52.799Z,99.90
2022-08-12T09:32:06.867Z,99.90
2022-08-12T09:34:29.363Z,99.90
2022-08-12T09:37:20.418Z,99.90
2022-08-12T09:40:05.245Z,99.90
2022-08-12T09:43:18.786Z,99.90
2022-08-12T09:46:12.070Z,99.90
2022-08-12T09:48:44.798Z,99.90
2022-08-12T09:51:38.358Z,99.90
2022-08-12T09:54:33.122Z,99.90
2022-08-12T09:58:44.598Z,99.90
2022-08-12T10:00:17.600Z,99.90
2022-08-12T10:03:01.667Z,99.90
2022-08-12T10:06:19.226Z,99.90
2022-08-12T10:08:30.972Z,99.90
2022-08-12T10:11:20.451Z,99.90
2022-08-12T10:13:51.934Z,99.90
2022-08-12T10:16:23.139Z,99.90
2022-08-12T10:18:54.388Z,99.90
2022-08-12T10:21:35.476Z,99.90
2022-08-12T10:24:07.080Z,99.90
2022-08-12T10:26:54.466Z,99.90
2022-08-12T10:30:03.244Z,99.90
2022-08-12T10:32:45.500Z,99.90
2022-08-12T10:35:17.389Z,99.90
2022-08-12T10:38:39.257Z,99.90
2022-08-12T10:40:59.737Z,99.90
2022-08-12T10:43:55.133Z,99.90
2022-08-12T10:46:31.264Z,99.90
2022-08-12T10:49:06.701Z,99.90
2022-08-12T10:52:03.421Z,99.90
2022-08-12T10:54:37.038Z,99.90
2022-08-12T10:57:07.083Z,99.90
2022-08-12T11:00:33.739Z,99.90
2022-08-12T11:04:22.745Z,99.90
2022-08-12T11:07:07.393Z,99.90
2022-08-12T11:08:33.884Z,99.90
2022-08-12T11:11:13.796Z,99.90
2022-08-12T11:13:48.990Z,99.90
2022-08-12T11:16:23.004Z,99.90
2022-08-12T11:18:55.500Z,99.90
2022-08-12T11:21:56.248Z,99.90
2022-08-12T11:24:30.043Z,99.90
2022-08-12T11:27:07.928Z,99.90
2022-08-12T11:30:02.352Z,99.90
2022-08-12T11:32:30.948Z,99.90
2022-08-12T11:35:09.265Z,99.90
2022-08-12T11:37:58.161Z,99.90
2022-08-12T11:40:28.706Z,99.90
2022-08-12T11:43:19.213Z,99.90
2022-08-12T11:45:53.207Z,99.90
2022-08-12T11:48:26.787Z,99.90
2022-08-12T11:50:57.457Z,99.90
2022-08-12T11:53:57.725Z,99.90
2022-08-12T11:56:16.845Z,99.90
2022-08-12T12:02:01.141Z,99.90
2022-08-12T12:02:02.741Z,99.90
2022-08-12T12:04:29.415Z,99.90
2022-08-12T12:07:06.631Z,99.90
2022-08-12T12:09:53.028Z,99.90
2022-08-12T12:12:25.267Z,99.90
2022-08-12T12:15:00.480Z,99.90
2022-08-12T12:17:38.037Z,99.90
2022-08-12T12:20:11.472Z,99.90
2022-08-12T12:22:45.002Z,99.90
2022-08-12T12:25:15.225Z,99.90
2022-08-12T12:28:05.719Z,99.90
2022-08-12T12:30:38.190Z,99.90
2022-08-12T12:33:09.447Z,99.90
2022-08-12T12:36:18.135Z,99.90
2022-08-12T12:38:28.661Z,99.90
2022-08-12T12:40:58.828Z,99.90
2022-08-12T12:43:29.090Z,99.90
2022-08-12T12:46:14.354Z,99.90
2022-08-12T12:48:44.822Z,99.90
2022-08-12T12:51:48.970Z,99.90
2022-08-12T12:54:11.134Z,99.90
2022-08-12T12:56:43.310Z,99.90
2022-08-12T12:59:33.822Z,99.90
2022-08-12T13:02:08.545Z,99.90
2022-08-12T13:04:39.065Z,99.90
2022-08-12T13:07:08.741Z,99.90
2022-08-12T13:09:38.399Z,99.90
2022-08-12T13:12:11.302Z,99.90
2022-08-12T13:14:41.274Z,99.90
2022-08-12T13:17:19.813Z,99.90
2022-08-12T13:19:49.787Z,99.90
2022-08-12T13:22:21.319Z,99.90
2022-08-12T13:24:56.158Z,99.90
2022-08-12T13:27:35.037Z,99.90
2022-08-12T13:30:11.412Z,99.90
2022-08-12T13:32:56.587Z,99.90
2022-08-12T13:35:33.196Z,99.90
2022-08-12T13:38:04.120Z,99.90
2022-08-12T13:40:34.339Z,99.90
2022-08-12T13:43:07.679Z,99.90
2022-08-12T13:45:37.525Z,99.90
2022-08-12T13:48:09.636Z,99.90
2022-08-12T13:50:40.445Z,99.90
2022-08-12T13:53:24.873Z,99.90
2022-08-12T13:56:01.906Z,99.90
2022-08-12T13:58:33.004Z,99.90
2022-08-12T14:01:08.780Z,99.90
2022-08-12T14:03:50.255Z,99.90
2022-08-12T14:06:21.635Z,99.90
2022-08-12T14:08:56.398Z,99.90
2022-08-12T14:11:28.037Z,99.90
2022-08-12T14:14:05.342Z,99.90
2022-08-12T14:16:51.250Z,99.90
2022-08-12T14:19:25.546Z,99.90
2022-08-12T14:22:05.589Z,99.90
2022-08-12T14:24:40.552Z,99.90
2022-08-12T14:27:12.036Z,99.90
2022-08-12T14:30:04.686Z,99.90
2022-08-12T14:32:36.288Z,99.90
2022-08-12T14:35:09.895Z,99.90
2022-08-12T14:37:54.989Z,99.90
2022-08-12T14:40:29.154Z,99.90
2022-08-12T14:43:00.760Z,99.90
2022-08-12T14:45:44.957Z,99.90
2022-08-12T14:48:24.322Z,99.90
2022-08-12T14:52:10.740Z,99.90
2022-08-12T14:55:36.158Z,99.90
2022-08-12T14:59:56.875Z,99.90
2022-08-12T15:02:29.231Z,99.90
2022-08-12T15:05:03.580Z,99.90
2022-08-12T15:07:48.852Z,99.90
2022-08-12T15:10:31.150Z,99.90
2022-08-12T15:13:08.241Z,99.90
2022-08-12T15:15:45.782Z,99.90
2022-08-12T15:18:21.266Z,99.90
2022-08-12T15:20:54.552Z,99.90
2022-08-12T15:23:29.339Z,99.90
2022-08-12T15:26:05.256Z,99.90
2022-08-12T15:28:38.448Z,99.90
2022-08-12T15:31:21.535Z,99.90
2022-08-12T15:33:58.280Z,99.90
2022-08-12T15:36:54.403Z,99.90
2022-08-12T15:39:20.391Z,99.90
2022-08-12T15:41:55.325Z,99.90
2022-08-12T15:44:42.245Z,99.90
2022-08-12T15:47:13.090Z,99.90
2022-08-12T15:50:00.468Z,99.90
2022-08-12T15:52:32.306Z,99.90
2022-08-12T15:55:05.991Z,99.90
2022-08-12T15:57:53.827Z,99.90
2022-08-12T16:00:31.622Z,99.90
2022-08-12T16:03:05.416Z,99.90
2022-08-12T16:06:10.987Z,99.90
2022-08-12T16:08:30.836Z,99.90
2022-08-12T16:11:07.276Z,99.90
2022-08-12T16:13:44.933Z,99.90
2022-08-12T16:16:23.916Z,99.90
2022-08-12T16:19:01.910Z,99.90
2022-08-12T16:21:51.453Z,99.90
2022-08-12T16:24:42.413Z,99.90
2022-08-12T16:27:14.378Z,99.90
2022-08-12T16:29:52.370Z,99.90
2022-08-12T16:32:31.146Z,99.90
2022-08-12T16:35:02.482Z,99.90
2022-08-12T16:38:24.308Z,99.90
2022-08-12T16:40:25.372Z,99.90
2022-08-12T16:43:12.822Z,99.90
2022-08-12T16:46:07.762Z,99.90
2022-08-12T16:48:38.391Z,99.90
2022-08-12T16:51:13.430Z,99.90
2022-08-12T16:53:45.672Z,99.90
2022-08-12T16:56:18.147Z,99.90
2022-08-12T16:58:52.119Z,99.90
2022-08-12T17:01:22.445Z,99.90
2022-08-12T17:04:09.873Z,99.90
2022-08-12T17:06:44.336Z,99.90
2022-08-12T17:09:17.077Z,99.90
2022-08-12T17:11:49.793Z,99.90
2022-08-12T17:14:24.940Z,99.90
2022-08-12T17:17:01.037Z,99.90
2022-08-12T17:20:16.919Z,99.90
2022-08-12T17:22:30.903Z,99.90
2022-08-12T17:25:02.457Z,99.90
2022-08-12T17:27:34.167Z,99.90
2022-08-12T17:30:08.762Z,99.90
2022-08-12T17:32:44.783Z,99.90
2022-08-12T17:35:37.209Z,99.90
2022-08-12T17:38:12.165Z,99.90
2022-08-12T17:40:43.468Z,99.90
2022-08-12T17:43:57.196Z,99.90
2022-08-12T17:46:12.885Z,99.90
2022-08-12T17:48:55.740Z,99.90
2022-08-12T17:51:31.458Z,99.90
2022-08-12T17:54:06.333Z,99.90
2022-08-12T17:56:44.400Z,99.90
2022-08-12T17:59:19.281Z,99.90
2022-08-12T18:02:13.591Z,99.90
2022-08-12T18:05:04.976Z,99.90
2022-08-12T18:07:39.615Z,99.90
2022-08-12T18:10:10.521Z,99.90
2022-08-12T18:12:51.053Z,99.90
2022-08-12T18:15:26.282Z,99.90
2022-08-12T18:18:19.598Z,99.90
2022-08-12T18:20:50.828Z,99.90
2022-08-12T18:23:24.341Z,99.90
2022-08-12T18:26:17.796Z,99.90
2022-08-12T18:28:48.860Z,99.90
2022-08-12T18:31:23.440Z,99.90
2022-08-12T18:33:55.963Z,99.90
2022-08-12T18:36:33.163Z,99.90
2022-08-12T18:39:05.395Z,99.90
2022-08-12T18:41:36.531Z,99.90
2022-08-12T18:44:10.069Z,99.90
2022-08-12T18:46:55.188Z,99.90
2022-08-12T18:49:33.439Z,99.90
2022-08-12T18:52:11.972Z,99.90
2022-08-12T18:54:53.386Z,99.90
2022-08-12T18:58:07.399Z,99.90
2022-08-12T19:00:22.028Z,99.90
2022-08-12T19:02:53.795Z,99.90
2022-08-12T19:05:53.322Z,99.90
2022-08-12T19:08:17.585Z,99.90
2022-08-12T19:10:51.117Z,99.90
2022-08-12T19:13:39.518Z,99.90
2022-08-12T19:16:14.023Z,99.90
2022-08-12T19:18:45.826Z,99.90
2022-08-12T19:21:20.224Z,99.90
2022-08-12T19:24:13.707Z,99.90
2022-08-12T19:26:45.164Z,99.90
2022-08-12T19:29:18.755Z,99.90
2022-08-12T19:31:57.772Z,99.90
2022-08-12T19:37:27.810Z,99.90
2022-08-12T19:40:31.139Z,99.90
2022-08-12T19:43:19.044Z,99.90
2022-08-12T19:45:53.808Z,99.90
2022-08-12T19:48:27.536Z,99.90
2022-08-12T19:50:58.629Z,99.90
2022-08-12T19:53:58.061Z,99.90
2022-08-12T19:56:29.567Z,99.90
2022-08-12T19:59:13.907Z,99.90
2022-08-12T20:02:03.301Z,99.90
2022-08-12T20:04:38.133Z,99.90
2022-08-12T20:07:23.058Z,99.90
2022-08-12T20:09:57.066Z,99.90
2022-08-12T20:12:34.693Z,99.90
2022-08-12T20:15:09.729Z,99.90
2022-08-12T20:17:51.032Z,99.90
2022-08-12T20:20:27.729Z,99.90
2022-08-12T20:22:58.834Z,99.90
2022-08-12T20:25:52.168Z,99.90
2022-08-12T20:28:22.092Z,99.90
2022-08-12T20:30:59.706Z,99.90
2022-08-12T20:33:50.578Z,99.90
2022-08-12T20:36:42.491Z,99.90
2022-08-12T20:39:34.040Z,99.90
2022-08-12T20:42:09.848Z,99.90
2022-08-12T20:44:42.592Z,99.90
2022-08-12T20:47:19.609Z,99.20
2022-08-12T20:49:55.649Z,99.10
2022-08-12T20:52:35.292Z,98.70
2022-08-12T20:55:06.493Z,99.30
2022-08-12T20:58:02.218Z,99.90
2022-08-12T21:00:34.758Z,99.90
2022-08-12T21:03:18.415Z,99.40
2022-08-12T21:06:12.863Z,99.90
2022-08-12T21:08:44.110Z,99.70
2022-08-12T21:11:14.305Z,99.90
2022-08-12T21:13:46.317Z,98.50
2022-08-12T21:16:16.624Z,98.20
2022-08-12T21:19:08.223Z,99.90
2022-08-12T21:21:49.933Z,99.10
2022-08-12T21:24:20.753Z,98.70
2022-08-12T21:27:03.434Z,98.00
2022-08-12T21:29:40.235Z,98.10
2022-08-12T21:32:40.918Z,98.70
2022-08-12T21:35:19.223Z,99.40
2022-08-12T21:37:53.219Z,98.30
2022-08-12T21:40:32.413Z,97.90
2022-08-12T21:43:09.792Z,98.40
2022-08-12T21:45:45.571Z,97.40
2022-08-12T21:48:28.140Z,99.20
2022-08-12T21:50:59.370Z,98.60
2022-08-12T21:54:05.778Z,98.30
2022-08-12T21:56:34.619Z,97.20
2022-08-12T21:59:07.246Z,98.40
2022-08-12T22:01:49.002Z,98.10
2022-08-12T22:04:37.030Z,99.10
2022-08-12T22:07:07.440Z,96.90
2022-08-12T22:09:43.466Z,97.20
2022-08-12T22:12:32.526Z,98.30
2022-08-12T22:15:03.012Z,97.60
2022-08-12T22:17:50.369Z,98.40
2022-08-12T22:20:29.311Z,98.80
2022-08-12T22:23:02.271Z,98.20
2022-08-12T22:25:33.773Z,99.00
2022-08-12T22:28:27.547Z,99.90
2022-08-12T22:31:11.981Z,99.90
2022-08-12T22:33:59.487Z,99.90
2022-08-12T22:36:33.176Z,99.90
2022-08-12T22:39:04.039Z,99.90
2022-08-12T22:41:47.628Z,99.90
2022-08-12T22:44:54.043Z,99.90
2022-08-12T22:47:53.952Z,99.90
2022-08-12T22:50:29.898Z,99.90
2022-08-12T22:53:15.666Z,99.90
2022-08-12T22:56:00.566Z,99.90
2022-08-12T22:58:40.536Z,99.90
2022-08-12T23:01:21.277Z,99.90
2022-08-12T23:04:03.163Z,99.90
2022-08-12T23:06:34.907Z,99.90
2022-08-12T23:09:05.523Z,99.90
2022-08-12T23:11:40.611Z,99.90
2022-08-12T23:14:11.669Z,99.90
2022-08-12T23:16:42.464Z,99.90
2022-08-12T23:19:17.863Z,99.90
2022-08-12T23:22:05.036Z,99.90
2022-08-12T23:24:54.062Z,99.90
2022-08-12T23:27:50.961Z,99.90
2022-08-12T23:30:31.879Z,99.90
2022-08-12T23:33:20.525Z,99.90
2022-08-12T23:36:02.643Z,99.90
2022-08-12T23:38:36.732Z,99.90
2022-08-12T23:41:16.101Z,99.90
2022-08-12T23:43:50.173Z,99.90
2022-08-12T23:46:22.811Z,99.90
2022-08-12T23:48:59.353Z,99.90
2022-08-12T23:51:35.049Z,99.90
2022-08-12T23:54:32.896Z,99.90
2022-08-12T23:57:10.770Z,99.90
2022-08-12T23:59:43.730Z,99.90
